Time;durP1;ratioP1;P1;durP2;ratioP2;P2;SDS_P1;SDS_P2;PMS_P1;PMS_P2;Temp;Humidity;BMP_temperature;BMP_pressure;BME280_temperature;BME280_humidity;BME280_pressure;Samples;Min_cycle;Max_cycle;Signal;HPM_P1;HPM_P2
2023/10/24 00:02:09;;;;;;;1.70;0.80;;;13.00;99.90;;;;;;5137281;27;20441;-58
2023/10/24 00:04:36;;;;;;;1.30;0.80;;;13.00;99.90;;;;;;5137650;27;20430;-58
2023/10/24 00:07:03;;;;;;;1.40;0.90;;;13.00;99.90;;;;;;5137673;27;20415;-58
2023/10/24 00:09:30;;;;;;;1.43;0.90;;;13.00;99.90;;;;;;5138305;27;20714;-58
2023/10/24 00:11:57;;;;;;;1.25;0.82;;;13.00;99.90;;;;;;5137501;27;20474;-57
2023/10/24 00:14:26;;;;;;;1.50;0.90;;;12.90;99.90;;;;;;5136325;27;20410;-58
2023/10/24 00:16:53;;;;;;;1.50;0.80;;;12.90;99.90;;;;;;5137973;27;20452;-57
2023/10/24 00:19:20;;;;;;;1.10;0.70;;;12.90;99.90;;;;;;5137527;27;20857;-57
2023/10/24 00:21:47;;;;;;;1.38;0.80;;;12.90;99.90;;;;;;5137965;27;20419;-57
2023/10/24 00:24:14;;;;;;;1.60;0.90;;;12.90;99.90;;;;;;5137937;27;20419;-59
2023/10/24 00:26:41;;;;;;;1.20;0.80;;;12.90;99.90;;;;;;5137914;27;20545;-58
2023/10/24 00:29:08;;;;;;;1.40;0.90;;;12.90;99.90;;;;;;5137707;27;20406;-57
2023/10/24 00:31:36;;;;;;;1.17;0.90;;;12.90;99.90;;;;;;5137334;27;20422;-58
2023/10/24 00:34:04;;;;;;;1.70;0.85;;;12.90;99.90;;;;;;5137676;27;20845;-58
2023/10/24 00:36:31;;;;;;;1.40;0.80;;;13.00;99.90;;;;;;5137800;27;20415;-58
2023/10/24 00:38:58;;;;;;;1.20;0.88;;;13.00;99.90;;;;;;5137655;27;20849;-58
2023/10/24 00:41:25;;;;;;;1.40;0.90;;;12.90;99.90;;;;;;5137338;27;20411;-58
2023/10/24 00:43:52;;;;;;;1.20;0.80;;;12.90;99.90;;;;;;5136841;27;20410;-58
2023/10/24 00:46:19;;;;;;;1.30;0.80;;;12.80;99.90;;;;;;5137355;27;20410;-58
2023/10/24 00:48:47;;;;;;;1.60;0.90;;;12.80;99.90;;;;;;5136798;27;20414;-56
2023/10/24 00:51:15;;;;;;;1.88;0.90;;;12.90;99.90;;;;;;5137214;27;20853;-57
2023/10/24 00:53:42;;;;;;;1.50;0.80;;;12.80;99.90;;;;;;5137725;27;20425;-57
2023/10/24 00:56:13;;;;;;;2.40;0.90;;;12.80;99.90;;;;;;5137415;27;20779;-59
2023/10/24 00:58:41;;;;;;;1.40;0.90;;;12.80;99.90;;;;;;5137133;27;20500;-56
2023/10/24 01:01:12;;;;;;;1.80;0.90;;;12.90;99.90;;;;;;5137351;27;20433;-58
2023/10/24 01:03:39;;;;;;;3.00;0.98;;;12.90;99.90;;;;;;5137355;27;20422;-58
2023/10/24 01:06:10;;;;;;;1.63;0.80;;;12.90;99.90;;;;;;5136733;27;20730;-56
2023/10/24 01:08:37;;;;;;;2.28;0.90;;;13.00;99.90;;;;;;5135534;27;20406;-57
2023/10/24 01:11:05;;;;;;;1.40;0.80;;;13.10;99.90;;;;;;5135376;27;20406;-58
2023/10/24 01:13:33;;;;;;;1.25;0.82;;;13.10;99.90;;;;;;5135983;27;20418;-57
2023/10/24 01:16:00;;;;;;;1.30;0.90;;;13.10;99.90;;;;;;5137053;27;20762;-58
2023/10/24 01:18:27;;;;;;;2.10;0.82;;;13.20;99.90;;;;;;5136804;27;20453;-58
2023/10/24 01:20:54;;;;;;;1.60;0.80;;;13.20;99.90;;;;;;5136995;27;20419;-58
2023/10/24 01:23:23;;;;;;;1.20;0.80;;;13.20;99.90;;;;;;5136682;27;20411;-57
2023/10/24 01:25:52;;;;;;;1.60;0.80;;;13.20;99.90;;;;;;5136524;27;20789;-57
2023/10/24 01:28:20;;;;;;;1.80;1.00;;;13.20;99.90;;;;;;5135664;27;20434;-58
2023/10/24 01:30:47;;;;;;;1.83;0.90;;;13.20;99.90;;;;;;5133218;27;20487;-57
2023/10/24 01:33:14;;;;;;;1.60;0.80;;;13.20;99.90;;;;;;5135414;27;20521;-57
2023/10/24 01:35:41;;;;;;;1.27;0.80;;;13.10;99.90;;;;;;5135363;27;20431;-56
2023/10/24 01:38:08;;;;;;;1.80;0.90;;;13.10;99.90;;;;;;5135334;27;20429;-55
2023/10/24 01:40:36;;;;;;;1.20;0.90;;;13.10;99.90;;;;;;5135573;27;20434;-57
2023/10/24 01:43:03;;;;;;;2.37;0.90;;;13.00;99.90;;;;;;5136133;27;20454;-56
2023/10/24 01:45:30;;;;;;;1.20;0.80;;;13.00;99.90;;;;;;5136307;27;20414;-56
2023/10/24 01:47:57;;;;;;;1.60;0.80;;;13.00;99.90;;;;;;5136439;27;20821;-58
2023/10/24 01:50:24;;;;;;;1.63;0.82;;;13.00;99.90;;;;;;5136051;27;20414;-52
2023/10/24 01:52:51;;;;;;;1.70;0.80;;;13.00;99.90;;;;;;5136328;27;20722;-56
2023/10/24 01:55:18;;;;;;;2.10;0.80;;;13.00;99.90;;;;;;5136542;27;20465;-57
2023/10/24 01:57:46;;;;;;;1.90;0.90;;;13.00;99.90;;;;;;5136398;27;20822;-56
2023/10/24 02:00:14;;;;;;;1.20;0.80;;;13.00;99.90;;;;;;5134738;27;20834;-55
2023/10/24 02:02:41;;;;;;;1.20;0.80;;;13.00;99.90;;;;;;5133855;27;20434;-58
2023/10/24 02:05:09;;;;;;;1.20;0.80;;;13.00;99.90;;;;;;5135848;27;20411;-57
2023/10/24 02:07:36;;;;;;;1.70;0.80;;;13.10;99.90;;;;;;5136076;27;20886;-57
2023/10/24 02:10:05;;;;;;;1.42;0.80;;;13.10;99.90;;;;;;5136060;27;20422;-57
2023/10/24 02:12:33;;;;;;;1.60;0.70;;;13.10;99.90;;;;;;5136325;27;20419;-58
2023/10/24 02:15:01;;;;;;;0.90;0.70;;;13.20;99.90;;;;;;5136222;27;20450;-58
2023/10/24 02:17:28;;;;;;;1.90;0.70;;;13.30;99.90;;;;;;5136075;27;20417;-58
2023/10/24 02:19:55;;;;;;;1.60;0.80;;;13.30;99.90;;;;;;5135753;27;20430;-58
2023/10/24 02:22:22;;;;;;;1.00;0.70;;;13.40;99.90;;;;;;5136110;27;20721;-57
2023/10/24 02:24:49;;;;;;;1.27;0.70;;;13.40;99.90;;;;;;5136090;27;20422;-57
2023/10/24 02:27:16;;;;;;;1.50;0.68;;;13.50;99.90;;;;;;5135881;27;20830;-57
2023/10/24 02:29:43;;;;;;;1.30;0.70;;;13.50;99.90;;;;;;5134365;27;20410;-57
2023/10/24 02:32:11;;;;;;;2.60;0.80;;;13.50;99.90;;;;;;5134460;27;20841;-59
2023/10/24 02:34:38;;;;;;;1.80;0.68;;;13.50;99.90;;;;;;5136185;27;20852;-57
2023/10/24 02:37:05;;;;;;;1.88;0.70;;;13.50;99.90;;;;;;5135870;27;20422;-56
2023/10/24 02:39:32;;;;;;;1.00;0.70;;;13.50;99.90;;;;;;5135521;27;20856;-56
2023/10/24 02:42:00;;;;;;;2.00;0.65;;;13.50;99.90;;;;;;5136751;27;20422;-59
2023/10/24 02:44:27;;;;;;;1.10;0.80;;;13.40;99.90;;;;;;5139853;27;20409;-58
2023/10/24 02:46:54;;;;;;;1.10;0.70;;;13.40;99.90;;;;;;5139570;27;20425;-57
2023/10/24 02:49:22;;;;;;;1.20;0.60;;;13.50;99.90;;;;;;5139634;27;20449;-58
2023/10/24 02:51:49;;;;;;;1.00;0.70;;;13.50;99.90;;;;;;5139666;27;20860;-55
2023/10/24 02:54:16;;;;;;;1.00;0.60;;;13.50;99.90;;;;;;5138754;27;20843;-57
2023/10/24 02:56:43;;;;;;;0.70;0.50;;;13.50;99.90;;;;;;5139822;27;20422;-57
2023/10/24 02:59:11;;;;;;;1.70;0.70;;;13.60;99.90;;;;;;5139215;27;20422;-58
2023/10/24 03:01:38;;;;;;;1.08;0.70;;;13.60;99.90;;;;;;5139892;27;20441;-57
2023/10/24 03:04:05;;;;;;;1.00;0.60;;;13.60;99.90;;;;;;5139542;27;20487;-57
2023/10/24 03:06:34;;;;;;;0.90;0.60;;;13.60;99.90;;;;;;5139221;27;20444;-57
2023/10/24 03:09:02;;;;;;;1.00;0.60;;;13.70;99.90;;;;;;5138092;27;20418;-57
2023/10/24 03:11:29;;;;;;;0.90;0.60;;;13.70;99.90;;;;;;5137424;27;20418;-58
2023/10/24 03:13:56;;;;;;;1.40;0.70;;;13.70;99.90;;;;;;5137135;27;20410;-58
2023/10/24 03:16:24;;;;;;;1.08;0.70;;;13.70;99.90;;;;;;5137847;27;20418;-58
2023/10/24 03:18:51;;;;;;;1.50;0.65;;;13.60;99.90;;;;;;5137946;27;20496;-58
2023/10/24 03:21:19;;;;;;;0.90;0.63;;;13.50;99.90;;;;;;5137375;27;20424;-58
2023/10/24 03:23:47;;;;;;;0.90;0.60;;;13.50;99.90;;;;;;5136792;27;20926;-58
2023/10/24 03:26:14;;;;;;;2.20;0.80;;;13.40;99.90;;;;;;5138077;27;20414;-57
2023/10/24 03:28:41;;;;;;;1.80;0.70;;;13.40;99.90;;;;;;5137966;27;20841;-58
2023/10/24 03:31:09;;;;;;;1.20;0.70;;;13.40;99.90;;;;;;5136945;27;20495;-58
2023/10/24 03:33:36;;;;;;;2.40;0.70;;;13.30;99.90;;;;;;5138326;27;20419;-58
2023/10/24 03:36:04;;;;;;;1.10;0.70;;;13.30;99.90;;;;;;5138059;27;20853;-58
2023/10/24 03:38:32;;;;;;;1.10;0.60;;;13.30;99.90;;;;;;5138662;27;20849;-58
2023/10/24 03:41:00;;;;;;;0.80;0.70;;;13.30;99.90;;;;;;5138809;27;20415;-58
2023/10/24 03:43:27;;;;;;;1.10;0.70;;;13.20;99.90;;;;;;5138736;27;20430;-58
2023/10/24 03:45:54;;;;;;;1.80;0.70;;;13.20;99.90;;;;;;5138231;27;20418;-58
2023/10/24 03:48:21;;;;;;;1.00;0.60;;;13.20;99.90;;;;;;5138473;27;20425;-57
2023/10/24 03:50:48;;;;;;;1.20;0.70;;;13.30;99.90;;;;;;5138646;27;20422;-58
2023/10/24 03:53:15;;;;;;;1.15;0.60;;;13.30;99.90;;;;;;5137420;27;20418;-58
2023/10/24 03:55:42;;;;;;;0.90;0.60;;;13.30;99.90;;;;;;5138469;27;20423;-59
2023/10/24 03:58:11;;;;;;;0.93;0.63;;;13.40;99.90;;;;;;5137735;27;20837;-59
2023/10/24 04:00:38;;;;;;;2.10;0.60;;;13.40;99.90;;;;;;5135731;27;20853;-59
2023/10/24 04:03:05;;;;;;;0.93;0.70;;;13.40;99.90;;;;;;5133981;27;20422;-59
2023/10/24 04:05:33;;;;;;;1.60;0.60;;;13.40;99.90;;;;;;5133669;27;20429;-58
2023/10/24 04:08:01;;;;;;;0.90;0.70;;;13.40;99.90;;;;;;5134658;27;20799;-59
2023/10/24 04:10:28;;;;;;;1.10;0.70;;;13.40;99.90;;;;;;5135427;27;20426;-59
2023/10/24 04:12:55;;;;;;;1.10;0.70;;;13.40;99.90;;;;;;5137266;27;20430;-59
2023/10/24 04:15:24;;;;;;;1.70;0.60;;;13.40;99.90;;;;;;5137832;27;20427;-59
2023/10/24 04:17:51;;;;;;;1.73;0.80;;;13.30;99.90;;;;;;5138262;27;20747;-58
2023/10/24 04:20:18;;;;;;;1.10;0.63;;;13.30;99.90;;;;;;5137948;27;20427;-58
2023/10/24 04:22:45;;;;;;;1.30;0.70;;;13.20;99.90;;;;;;5137979;27;20414;-58
2023/10/24 04:25:12;;;;;;;1.00;0.70;;;13.20;99.90;;;;;;5138312;27;20418;-58
2023/10/24 04:27:39;;;;;;;1.40;0.73;;;13.30;99.90;;;;;;5137226;27;20415;-59
2023/10/24 04:30:07;;;;;;;1.40;0.70;;;13.30;99.90;;;;;;5137483;27;20418;-58
2023/10/24 04:32:36;;;;;;;1.10;0.70;;;13.40;99.90;;;;;;5137667;27;20410;-58
2023/10/24 04:35:05;;;;;;;1.00;0.70;;;13.40;99.90;;;;;;5137897;27;20437;-58
2023/10/24 04:37:32;;;;;;;1.10;0.70;;;13.40;99.90;;;;;;5137921;27;20551;-57
2023/10/24 04:39:59;;;;;;;1.00;0.70;;;13.40;99.90;;;;;;5137766;27;20435;-56
2023/10/24 04:42:26;;;;;;;2.00;0.80;;;13.30;99.90;;;;;;5135301;27;20414;-58
2023/10/24 04:44:54;;;;;;;1.90;0.77;;;13.30;99.90;;;;;;5134686;27;20425;-57
2023/10/24 04:47:21;;;;;;;1.70;0.80;;;13.30;99.90;;;;;;5134220;27;20513;-58
2023/10/24 04:49:50;;;;;;;1.33;0.80;;;13.30;99.90;;;;;;5134582;27;20414;-57
2023/10/24 04:52:17;;;;;;;1.15;0.80;;;13.20;99.90;;;;;;5135188;27;20427;-59
2023/10/24 04:54:44;;;;;;;1.20;0.67;;;13.20;99.90;;;;;;5135859;27;20441;-59
2023/10/24 04:57:11;;;;;;;1.55;0.70;;;13.20;99.90;;;;;;5136235;27;20418;-56
2023/10/24 04:59:38;;;;;;;1.55;0.80;;;13.20;99.90;;;;;;5137166;27;20427;-57
2023/10/24 05:02:05;;;;;;;1.25;0.80;;;13.20;99.90;;;;;;5137219;27;20418;-58
2023/10/24 05:04:32;;;;;;;1.63;0.80;;;13.30;99.90;;;;;;5136040;27;20453;-57
2023/10/24 05:07:01;;;;;;;2.70;0.90;;;13.30;99.90;;;;;;5135716;27;20411;-58
2023/10/24 05:09:28;;;;;;;1.02;0.70;;;13.30;99.90;;;;;;5135016;27;20414;-57
2023/10/24 05:12:14;;;;;;;1.90;0.70;;;13.40;99.90;;;;;;5090741;27;20410;-57
2023/10/24 05:14:41;;;;;;;1.80;0.80;;;13.30;99.90;;;;;;5134397;27;20449;-57
2023/10/24 05:17:08;;;;;;;2.10;0.90;;;13.30;99.90;;;;;;5133323;27;20414;-57
2023/10/24 05:19:35;;;;;;;1.10;0.80;;;13.30;99.90;;;;;;5132026;27;20525;-57
2023/10/24 05:22:03;;;;;;;1.50;0.90;;;13.20;99.90;;;;;;5131445;27;20730;-57
2023/10/24 05:24:30;;;;;;;1.20;0.75;;;13.20;99.90;;;;;;5130196;27;20419;-57
2023/10/24 05:26:57;;;;;;;1.60;0.73;;;13.20;99.90;;;;;;5130848;27;20426;-57
2023/10/24 05:29:24;;;;;;;1.80;0.70;;;13.20;99.90;;;;;;5132737;27;20403;-57
2023/10/24 05:31:52;;;;;;;1.20;0.80;;;13.10;99.90;;;;;;5132144;27;20418;-56
2023/10/24 05:34:19;;;;;;;1.60;0.80;;;13.10;99.90;;;;;;5134260;27;20426;-55
2023/10/24 05:36:46;;;;;;;1.67;0.90;;;13.00;99.90;;;;;;5133119;27;20431;-57
2023/10/24 05:39:15;;;;;;;1.70;0.82;;;13.00;99.90;;;;;;5131997;27;20529;-56
2023/10/24 05:41:42;;;;;;;3.00;0.93;;;13.10;99.90;;;;;;5132793;27;20465;-57
2023/10/24 05:44:09;;;;;;;1.20;0.80;;;13.10;99.90;;;;;;5131903;27;20407;-57
2023/10/24 05:46:36;;;;;;;1.40;0.90;;;13.10;99.90;;;;;;5131582;27;20414;-57
2023/10/24 05:49:03;;;;;;;1.30;0.80;;;13.20;99.90;;;;;;5132425;27;20845;-57
2023/10/24 05:51:31;;;;;;;1.00;0.80;;;13.20;99.90;;;;;;5132810;27;20430;-56
2023/10/24 05:53:58;;;;;;;1.60;0.73;;;13.20;99.90;;;;;;5132382;27;20426;-56
2023/10/24 05:56:26;;;;;;;1.53;0.80;;;13.10;99.90;;;;;;5131757;27;20418;-57
2023/10/24 05:58:54;;;;;;;1.40;0.85;;;13.10;99.90;;;;;;5131369;27;20423;-57
2023/10/24 06:01:22;;;;;;;1.20;0.88;;;13.10;99.90;;;;;;5132251;27;20462;-57
2023/10/24 06:03:49;;;;;;;1.58;0.90;;;13.20;99.90;;;;;;5134272;27;20944;-55
2023/10/24 06:06:16;;;;;;;1.70;0.90;;;13.20;99.90;;;;;;5132785;27;20425;-55
2023/10/24 06:08:43;;;;;;;2.20;0.90;;;13.10;99.90;;;;;;5132320;27;20418;-55
2023/10/24 06:11:10;;;;;;;1.77;0.80;;;13.10;99.90;;;;;;5133430;27;20691;-56
2023/10/24 06:13:39;;;;;;;2.40;1.00;;;13.10;99.90;;;;;;5133237;27;20433;-57
2023/10/24 06:16:10;;;;;;;3.40;1.00;;;13.10;99.90;;;;;;5134367;27;20497;-55
2023/10/24 06:18:38;;;;;;;2.20;0.70;;;13.10;99.90;;;;;;5132951;27;20853;-54
2023/10/24 06:21:05;;;;;;;2.30;0.85;;;13.10;99.90;;;;;;5130166;27;20845;-57
2023/10/24 06:23:33;;;;;;;1.10;0.80;;;13.10;99.90;;;;;;5130464;27;20891;-54
2023/10/24 06:26:00;;;;;;;2.80;0.80;;;13.10;99.90;;;;;;5130976;27;20942;-56
2023/10/24 06:28:27;;;;;;;1.20;0.90;;;13.20;99.90;;;;;;5130279;27;20418;-57
2023/10/24 06:31:00;;;;;;;1.60;0.90;;;13.10;99.90;;;;;;5130906;27;20848;-56
2023/10/24 06:33:29;;;;;;;1.13;0.70;;;13.10;99.90;;;;;;5130668;27;20908;-56
2023/10/24 06:35:57;;;;;;;1.10;0.80;;;13.10;99.90;;;;;;5132635;27;20705;-54
2023/10/24 06:38:24;;;;;;;1.50;0.80;;;13.10;99.90;;;;;;5131613;27;20725;-57
2023/10/24 06:40:51;;;;;;;1.80;0.80;;;13.10;99.90;;;;;;5130924;27;20453;-56
2023/10/24 06:43:19;;;;;;;1.60;0.90;;;13.10;99.90;;;;;;5132514;27;20430;-56
2023/10/24 06:45:46;;;;;;;1.98;0.80;;;13.20;99.90;;;;;;5131414;27;20419;-53
2023/10/24 06:48:15;;;;;;;1.30;0.70;;;13.30;99.90;;;;;;5128867;27;20430;-54
2023/10/24 06:50:42;;;;;;;1.90;0.80;;;13.40;99.90;;;;;;5123840;27;20432;-54
2023/10/24 06:53:10;;;;;;;2.95;1.00;;;13.50;99.90;;;;;;5119244;27;20426;-54
2023/10/24 06:55:38;;;;;;;1.50;0.80;;;13.60;99.90;;;;;;5131374;27;20431;-58
2023/10/24 06:58:05;;;;;;;2.00;0.70;;;13.60;99.90;;;;;;5131998;27;20422;-57
2023/10/24 07:00:35;;;;;;;1.50;0.80;;;13.50;99.90;;;;;;5131448;27;20469;-57
2023/10/24 07:03:03;;;;;;;1.20;0.80;;;13.40;99.90;;;;;;5128380;27;20493;-57
2023/10/24 07:05:32;;;;;;;1.93;0.80;;;13.40;99.90;;;;;;5127985;27;20786;-56
2023/10/24 07:07:59;;;;;;;1.50;0.90;;;13.20;99.90;;;;;;5128539;27;20999;-55
2023/10/24 07:10:27;;;;;;;2.50;0.80;;;13.20;99.90;;;;;;5131365;27;20422;-56
2023/10/24 07:12:54;;;;;;;1.30;1.00;;;13.20;99.90;;;;;;5131621;28;20430;-56
2023/10/24 07:15:21;;;;;;;2.00;0.95;;;13.10;99.90;;;;;;5131040;27;20889;-51
2023/10/24 07:17:48;;;;;;;1.73;1.08;;;13.10;99.90;;;;;;5126287;27;20438;-51
2023/10/24 07:20:15;;;;;;;2.70;0.80;;;13.20;99.90;;;;;;5130437;27;20422;-55
2023/10/24 07:22:43;;;;;;;1.70;0.90;;;13.30;99.90;;;;;;5120275;27;20422;-54
2023/10/24 07:25:10;;;;;;;1.88;0.88;;;13.40;99.90;;;;;;5132902;27;20434;-56
2023/10/24 07:27:38;;;;;;;1.50;0.90;;;13.40;99.90;;;;;;5130487;27;20438;-56
2023/10/24 07:30:07;;;;;;;1.30;0.70;;;13.40;99.90;;;;;;5133994;27;20722;-54
2023/10/24 07:32:35;;;;;;;1.20;0.70;;;13.60;99.90;;;;;;5132913;27;20478;-53
2023/10/24 07:35:03;;;;;;;1.38;0.70;;;13.60;99.90;;;;;;5133897;27;20720;-55
2023/10/24 07:37:31;;;;;;;1.60;0.80;;;13.70;99.90;;;;;;5133537;27;20476;-54
2023/10/24 07:39:59;;;;;;;1.27;0.70;;;13.80;99.90;;;;;;5133035;27;20433;-56
2023/10/24 07:42:26;;;;;;;1.75;0.80;;;13.80;99.90;;;;;;5134605;27;20608;-53
2023/10/24 07:44:54;;;;;;;1.50;0.90;;;13.70;99.90;;;;;;5132774;27;20418;-57
2023/10/24 07:47:21;;;;;;;2.95;0.90;;;13.70;99.90;;;;;;5129225;27;20620;-57
2023/10/24 07:49:48;;;;;;;1.45;0.90;;;13.60;99.90;;;;;;5129798;27;20442;-56
2023/10/24 07:52:15;;;;;;;2.00;0.80;;;13.60;99.90;;;;;;5131468;27;20437;-55
2023/10/24 07:54:42;;;;;;;2.80;0.98;;;13.60;99.90;;;;;;5130994;27;20858;-56
2023/10/24 07:57:12;;;;;;;2.35;1.10;;;13.60;99.90;;;;;;5132720;27;20438;-57
2023/10/24 07:59:39;;;;;;;2.00;1.00;;;13.60;99.90;;;;;;5131819;27;20431;-57
2023/10/24 08:02:06;;;;;;;2.53;0.90;;;13.60;99.90;;;;;;5132701;27;20484;-56
2023/10/24 08:04:34;;;;;;;3.40;1.07;;;13.50;99.90;;;;;;5135201;27;20437;-59
2023/10/24 08:07:03;;;;;;;2.67;1.10;;;13.30;99.90;;;;;;5132235;27;21062;-57
2023/10/24 08:09:30;;;;;;;2.30;1.10;;;13.30;99.90;;;;;;5133499;27;20445;-58
2023/10/24 08:11:57;;;;;;;2.60;1.00;;;13.30;99.90;;;;;;5129875;27;20750;-59
2023/10/24 08:14:26;;;;;;;1.55;1.00;;;13.30;99.90;;;;;;5134734;27;20471;-58
2023/10/24 08:16:53;;;;;;;3.85;1.08;;;13.30;99.90;;;;;;5133879;27;20454;-58
2023/10/24 08:19:20;;;;;;;2.30;0.90;;;13.30;99.90;;;;;;5131580;27;20419;-58
2023/10/24 08:21:47;;;;;;;1.73;1.00;;;13.30;99.90;;;;;;5132297;27;21002;-58
2023/10/24 08:24:16;;;;;;;2.60;1.15;;;13.20;99.90;;;;;;5134152;27;20410;-59
2023/10/24 08:26:43;;;;;;;3.10;1.00;;;13.20;99.90;;;;;;5133364;27;20434;-58
2023/10/24 08:29:10;;;;;;;3.23;1.20;;;13.20;99.90;;;;;;5131802;27;20422;-59
2023/10/24 08:31:38;;;;;;;2.80;1.20;;;13.20;99.90;;;;;;5132848;27;20433;-59
2023/10/24 08:34:05;;;;;;;2.70;0.90;;;13.20;99.90;;;;;;5133922;27;20895;-59
2023/10/24 08:36:32;;;;;;;2.50;1.00;;;13.20;99.90;;;;;;5131801;27;20434;-59
2023/10/24 08:38:59;;;;;;;2.10;1.10;;;13.20;99.90;;;;;;5130296;27;20437;-59
2023/10/24 08:41:26;;;;;;;2.00;1.20;;;13.20;99.90;;;;;;5128886;27;20422;-59
2023/10/24 08:43:54;;;;;;;2.20;1.10;;;13.20;99.90;;;;;;5131760;27;20779;-59
2023/10/24 08:46:22;;;;;;;2.00;1.00;;;13.10;99.90;;;;;;5129348;27;20438;-59
2023/10/24 08:48:51;;;;;;;2.50;1.27;;;13.10;99.90;;;;;;5132983;27;20472;-60
2023/10/24 08:51:18;;;;;;;1.90;1.13;;;13.10;99.90;;;;;;5129393;27;20434;-59
2023/10/24 08:53:45;;;;;;;3.30;1.30;;;13.10;99.90;;;;;;5131352;27;20422;-59
2023/10/24 08:56:13;;;;;;;3.47;1.30;;;13.00;99.90;;;;;;5130340;27;20411;-57
2023/10/24 08:58:41;;;;;;;2.17;1.20;;;13.00;99.90;;;;;;5132586;27;20410;-58
2023/10/24 09:01:09;;;;;;;3.90;1.25;;;13.00;99.90;;;;;;5131262;27;20869;-58
2023/10/24 09:03:37;;;;;;;3.08;1.38;;;12.90;99.90;;;;;;5132809;27;20434;-59
2023/10/24 09:06:07;;;;;;;2.47;1.13;;;12.90;99.90;;;;;;5133097;27;20430;-57
2023/10/24 09:08:34;;;;;;;2.13;1.40;;;12.90;99.90;;;;;;5130955;27;20441;-58
2023/10/24 09:11:01;;;;;;;2.53;1.45;;;12.90;99.90;;;;;;5132234;27;20818;-58
2023/10/24 09:13:28;;;;;;;2.33;1.23;;;12.90;99.90;;;;;;5132282;27;20733;-58
2023/10/24 09:16:06;;;;;;;2.00;1.40;;;12.80;99.90;;;;;;5122894;27;20442;-58
2023/10/24 09:18:36;;;;;;;2.50;1.30;;;12.80;99.90;;;;;;5132097;27;20474;-58
2023/10/24 09:21:05;;;;;;;2.45;1.52;;;12.80;99.90;;;;;;5126007;27;20526;-57
2023/10/24 09:23:35;;;;;;;2.25;1.23;;;12.90;99.90;;;;;;5130436;27;20429;-58
2023/10/24 09:26:03;;;;;;;3.42;1.20;;;13.00;99.90;;;;;;5119303;27;20853;-59
2023/10/24 09:28:31;;;;;;;2.10;1.40;;;13.00;99.90;;;;;;5131229;27;20434;-59
2023/10/24 09:30:59;;;;;;;2.70;1.00;;;13.00;99.90;;;;;;5132665;27;20414;-58
2023/10/24 09:33:27;;;;;;;1.40;1.10;;;13.00;99.90;;;;;;5130334;27;20573;-58
2023/10/24 09:35:54;;;;;;;3.20;1.30;;;13.00;99.90;;;;;;5132000;27;20434;-58
2023/10/24 09:38:24;;;;;;;3.23;1.30;;;13.00;99.90;;;;;;5132644;27;20406;-58
2023/10/24 09:40:52;;;;;;;1.73;1.30;;;13.10;99.90;;;;;;5131870;27;20433;-59
2023/10/24 09:43:22;;;;;;;2.38;1.30;;;13.10;99.90;;;;;;5130977;27;20454;-58
2023/10/24 09:45:50;;;;;;;3.28;1.70;;;13.20;99.90;;;;;;5132210;27;20930;-58
2023/10/24 09:48:18;;;;;;;2.33;1.50;;;13.20;99.90;;;;;;5129014;27;20434;-58
2023/10/24 09:50:45;;;;;;;4.07;1.20;;;13.20;99.90;;;;;;5130443;27;20562;-60
2023/10/24 09:53:13;;;;;;;2.50;1.40;;;13.30;99.90;;;;;;5130882;27;20422;-59
2023/10/24 09:55:48;;;;;;;2.70;1.58;;;13.30;99.90;;;;;;5132628;27;20425;-51
2023/10/24 09:58:17;;;;;;;2.92;1.30;;;13.30;99.90;;;;;;5133558;27;20454;-51
2023/10/24 10:00:45;;;;;;;3.72;1.50;;;13.20;99.90;;;;;;5132941;27;20426;-49
2023/10/24 10:03:13;;;;;;;2.60;1.35;;;13.30;99.90;;;;;;5133603;27;20472;-51
2023/10/24 10:05:41;;;;;;;3.15;1.60;;;13.30;99.90;;;;;;5131749;27;20433;-52
2023/10/24 10:08:09;;;;;;;3.08;1.50;;;13.30;99.90;;;;;;5133674;27;20506;-51
2023/10/24 10:10:38;;;;;;;3.70;1.40;;;13.30;99.90;;;;;;5132873;27;20434;-50
2023/10/24 10:13:13;;;;;;;3.20;1.70;;;13.40;99.90;;;;;;5131285;27;20413;-51
2023/10/24 10:15:56;;;;;;;3.35;1.45;;;13.40;99.90;;;;;;5130816;27;20425;-53
2023/10/24 10:18:48;;;;;;;2.53;1.60;;;13.30;99.90;;;;;;5131371;27;20833;-48
2023/10/24 10:21:25;;;;;;;2.03;1.40;;;13.40;99.90;;;;;;5130299;27;20422;-52
2023/10/24 10:24:36;;;;;;;5.05;1.80;;;13.30;99.90;;;;;;5129924;27;20426;-52
2023/10/24 10:27:15;;;;;;;2.95;1.60;;;13.40;99.90;;;;;;5127613;28;20437;-52
2023/10/24 10:30:02;;;;;;;2.20;1.30;;;13.40;99.90;;;;;;5130488;27;20422;-51
2023/10/24 10:32:39;;;;;;;2.83;1.50;;;13.50;99.90;;;;;;5110802;28;20408;-52
2023/10/24 10:35:06;;;;;;;2.40;1.30;;;13.50;99.90;;;;;;5123888;27;20422;-49
2023/10/24 10:37:36;;;;;;;4.13;1.50;;;13.50;99.90;;;;;;5130823;27;20436;-59
2023/10/24 10:40:27;;;;;;;6.40;1.20;;;13.60;99.90;;;;;;5132665;27;20430;-59
2023/10/24 10:42:54;;;;;;;2.40;1.77;;;13.60;99.90;;;;;;5131695;27;20423;-59
2023/10/24 10:45:27;;;;;;;3.28;1.75;;;13.50;99.90;;;;;;5131548;27;20434;-59
2023/10/24 10:47:58;;;;;;;2.40;1.33;;;13.40;99.90;;;;;;5130841;27;20430;-59
2023/10/24 10:50:27;;;;;;;3.25;1.83;;;13.30;99.90;;;;;;5127524;27;20804;-59
2023/10/24 10:53:04;;;;;;;3.17;2.10;;;13.20;99.90;;;;;;5122683;27;20410;-59
2023/10/24 10:55:36;;;;;;;3.72;1.90;;;13.20;99.90;;;;;;5132680;27;20734;-61
2023/10/24 10:58:11;;;;;;;2.20;1.70;;;13.20;99.90;;;;;;5131057;28;20819;-61
2023/10/24 11:01:00;;;;;;;2.88;1.30;;;13.30;99.90;;;;;;5129435;27;20847;-61
2023/10/24 11:03:45;;;;;;;4.80;1.50;;;13.30;99.90;;;;;;5130087;27;20497;-60
2023/10/24 11:06:14;;;;;;;3.90;1.80;;;13.40;99.90;;;;;;5134627;27;20422;-60
2023/10/24 11:08:42;;;;;;;3.47;1.88;;;13.30;99.90;;;;;;5133065;27;20430;-61
2023/10/24 11:11:10;;;;;;;4.35;1.65;;;13.40;99.90;;;;;;5133944;27;20415;-61
2023/10/24 11:13:42;;;;;;;4.28;2.85;;;13.50;99.90;;;;;;5135887;27;20468;-60
2023/10/24 11:16:12;;;;;;;2.60;1.90;;;13.50;99.90;;;;;;5134051;27;20426;-60
2023/10/24 11:18:41;;;;;;;3.90;2.38;;;13.50;99.90;;;;;;5132040;27;20895;-61
2023/10/24 11:21:09;;;;;;;4.37;1.90;;;13.50;99.90;;;;;;5133939;27;20468;-61
2023/10/24 11:23:40;;;;;;;4.90;2.10;;;13.60;99.90;;;;;;5133598;27;20850;-60
2023/10/24 11:26:07;;;;;;;4.85;2.10;;;13.50;99.90;;;;;;5134794;27;20414;-61
2023/10/24 11:28:34;;;;;;;5.20;2.60;;;13.50;99.90;;;;;;5133934;27;20426;-63
2023/10/24 11:31:21;;;;;;;4.57;2.30;;;13.50;99.90;;;;;;5132436;27;20448;-61
2023/10/24 11:33:48;;;;;;;4.38;2.53;;;13.50;99.90;;;;;;5134471;27;20729;-60
2023/10/24 11:36:16;;;;;;;5.32;3.30;;;13.50;99.90;;;;;;5133760;27;20462;-61
2023/10/24 11:38:43;;;;;;;5.30;2.20;;;13.40;99.90;;;;;;5133211;27;20453;-62
2023/10/24 11:41:10;;;;;;;3.80;1.87;;;13.40;99.90;;;;;;5135424;27;20422;-61
2023/10/24 11:43:37;;;;;;;3.00;1.33;;;13.50;99.90;;;;;;5132045;27;20441;-61
2023/10/24 11:46:04;;;;;;;1.55;0.90;;;13.60;99.90;;;;;;5132052;27;20465;-61
2023/10/24 11:48:32;;;;;;;1.90;0.70;;;13.60;99.90;;;;;;5133591;27;20437;-61
2023/10/24 11:51:03;;;;;;;1.20;0.70;;;13.60;99.90;;;;;;5133853;27;20447;-61
2023/10/24 11:53:30;;;;;;;1.58;0.70;;;13.60;99.90;;;;;;5135047;27;20781;-61
2023/10/24 11:55:58;;;;;;;1.10;0.70;;;13.60;99.90;;;;;;5133684;27;20415;-61
2023/10/24 11:58:32;;;;;;;1.70;0.80;;;13.60;99.90;;;;;;5131777;27;20426;-61
2023/10/24 12:01:00;;;;;;;0.90;0.60;;;13.70;99.90;;;;;;5132253;27;20422;-62
2023/10/24 12:03:27;;;;;;;1.90;0.60;;;13.60;99.90;;;;;;5133158;27;20482;-62
2023/10/24 12:05:56;;;;;;;1.10;0.60;;;13.50;99.90;;;;;;5133584;27;20417;-63
2023/10/24 12:08:24;;;;;;;1.20;0.50;;;13.60;99.90;;;;;;5132782;27;20685;-61
2023/10/24 12:10:55;;;;;;;0.90;0.60;;;13.60;99.90;;;;;;5132263;27;20786;-62
2023/10/24 12:13:23;;;;;;;1.00;0.50;;;13.60;99.90;;;;;;5132491;27;20861;-62
2023/10/24 12:15:51;;;;;;;0.80;0.50;;;13.60;99.90;;;;;;5133820;27;20427;-62
2023/10/24 12:18:18;;;;;;;0.90;0.60;;;13.60;99.90;;;;;;5133966;27;20430;-62
2023/10/24 12:20:45;;;;;;;1.90;0.60;;;13.60;99.90;;;;;;5129243;27;20418;-59
2023/10/24 12:23:13;;;;;;;1.20;0.50;;;13.60;99.90;;;;;;5129622;27;20535;-58
2023/10/24 12:25:40;;;;;;;1.38;0.70;;;13.50;99.90;;;;;;5131077;27;20505;-58
2023/10/24 12:28:07;;;;;;;1.02;0.60;;;13.60;99.90;;;;;;5133153;27;20422;-59
2023/10/24 12:30:35;;;;;;;0.77;0.40;;;13.60;99.90;;;;;;5130411;27;20753;-59
2023/10/24 12:33:02;;;;;;;1.30;0.60;;;13.60;99.90;;;;;;5131424;27;20433;-59
2023/10/24 12:35:29;;;;;;;0.43;0.30;;;13.60;99.90;;;;;;5131989;27;20410;-59
2023/10/24 12:37:56;;;;;;;0.60;0.40;;;13.60;99.90;;;;;;5133638;27;20410;-59
2023/10/24 12:40:25;;;;;;;1.00;0.30;;;13.60;99.90;;;;;;5120989;27;20881;-59
2023/10/24 12:42:53;;;;;;;0.60;0.30;;;13.70;99.90;;;;;;5114173;28;20424;-59
2023/10/24 12:45:21;;;;;;;1.25;0.40;;;13.70;99.90;;;;;;5115191;28;20412;-59
2023/10/24 12:47:48;;;;;;;0.80;0.38;;;13.60;99.90;;;;;;5114583;28;20547;-59
2023/10/24 12:50:15;;;;;;;1.70;0.30;;;13.70;99.90;;;;;;5114542;28;20416;-59
2023/10/24 12:52:43;;;;;;;1.20;0.60;;;13.70;99.90;;;;;;5115145;28;20412;-59
2023/10/24 12:55:10;;;;;;;1.60;0.40;;;13.70;99.90;;;;;;5114250;28;20839;-59